createdAt,value
2018-12-20T00:02:28.309Z,150.25
2018-12-20T00:05:00.083Z,145.50
2018-12-20T00:07:31.715Z,155.75
2018-12-20T00:10:04.056Z,152.75
2018-12-20T00:12:35.805Z,140.75
2018-12-20T00:15:07.897Z,149.50
2018-12-20T00:17:44.282Z,145.00
2018-12-20T00:20:15.855Z,148.00
2018-12-20T00:22:48.085Z,150.75
2018-12-20T00:25:20.233Z,145.25
2018-12-20T00:27:52.956Z,140.50
2018-12-20T00:30:24.582Z,142.25
2018-12-20T00:32:56.258Z,145.25
2018-12-20T00:35:28.281Z,151.50
2018-12-20T00:37:59.864Z,143.75
2018-12-20T00:40:31.683Z,147.00
2018-12-20T00:43:03.450Z,141.25
2018-12-20T00:45:36.068Z,136.50
2018-12-20T00:48:09.194Z,143.25
2018-12-20T00:50:41.028Z,151.00
2018-12-20T00:53:12.967Z,149.75
2018-12-20T00:55:44.857Z,151.25
2018-12-20T00:58:16.642Z,157.00
2018-12-20T01:00:48.415Z,146.00
2018-12-20T01:03:20.291Z,144.25
2018-12-20T01:05:52.010Z,139.75
2018-12-20T01:08:23.798Z,143.00
2018-12-20T01:10:55.747Z,137.00
2018-12-20T01:13:27.990Z,146.00
2018-12-20T01:16:00.190Z,148.50
2018-12-20T01:18:31.700Z,141.75
2018-12-20T01:21:03.789Z,143.50
2018-12-20T01:23:36.082Z,147.25
2018-12-20T01:26:08.403Z,147.75
2018-12-20T01:28:39.976Z,159.00
2018-12-20T01:31:12.021Z,142.25
2018-12-20T01:33:42.452Z,140.00
2018-12-20T01:36:14.350Z,153.25
2018-12-20T01:38:46.382Z,151.00
2018-12-20T01:41:18.431Z,154.50
2018-12-20T01:43:50.451Z,161.25
2018-12-20T01:46:23.342Z,170.75
2018-12-20T01:48:55.653Z,178.75
2018-12-20T01:51:27.603Z,191.25
2018-12-20T01:53:59.474Z,183.25
2018-12-20T01:56:31.218Z,182.50
2018-12-20T01:59:03.394Z,184.75
2018-12-20T02:01:35.145Z,201.00
2018-12-20T02:04:07.233Z,188.75
2018-12-20T02:06:39.702Z,204.00
2018-12-20T02:09:11.668Z,198.50
2018-12-20T02:11:43.944Z,201.75
2018-12-20T02:14:15.622Z,207.25
2018-12-20T02:16:47.872Z,218.00
2018-12-20T02:19:19.735Z,213.00
2018-12-20T02:21:52.057Z,197.50
2018-12-20T02:24:24.187Z,205.50
2018-12-20T02:26:56.303Z,198.00
2018-12-20T02:29:43.595Z,185.25
2018-12-20T02:32:15.925Z,189.50
2018-12-20T02:34:47.524Z,208.25
2018-12-20T02:37:19.209Z,210.75
2018-12-20T02:39:51.408Z,196.75
2018-12-20T02:42:23.599Z,215.25
2018-12-20T02:44:56.126Z,227.40
2018-12-20T02:47:30.929Z,249.40
2018-12-20T02:50:02.462Z,232.40
2018-12-20T02:52:34.784Z,235.00
2018-12-20T02:55:06.462Z,233.80
2018-12-20T02:57:38.038Z,232.60
2018-12-20T03:00:09.890Z,238.40
2018-12-20T03:02:41.995Z,230.00
2018-12-20T03:05:13.442Z,259.40
2018-12-20T03:07:45.102Z,263.40
2018-12-20T03:10:16.709Z,272.00
2018-12-20T03:12:48.652Z,247.20
2018-12-20T03:15:20.596Z,246.60
2018-12-20T03:17:52.785Z,253.40
2018-12-20T03:20:24.911Z,237.00
2018-12-20T03:22:56.665Z,239.00
2018-12-20T03:25:28.727Z,231.75
2018-12-20T03:28:00.557Z,244.20
2018-12-20T03:30:32.052Z,235.00
2018-12-20T03:33:03.620Z,232.00
2018-12-20T03:35:35.442Z,240.25
2018-12-20T03:38:07.202Z,242.50
2018-12-20T03:40:38.677Z,227.40
2018-12-20T03:43:10.274Z,233.20
2018-12-20T03:45:41.829Z,221.40
2018-12-20T03:48:14.023Z,219.00
2018-12-20T03:50:45.733Z,214.75
2018-12-20T03:53:18.435Z,216.20
2018-12-20T03:55:50.492Z,214.25
2018-12-20T03:58:22.155Z,205.00
2018-12-20T04:00:53.839Z,204.25
2018-12-20T04:03:26.162Z,210.50
2018-12-20T04:06:02.567Z,196.50
2018-12-20T04:08:37.322Z,204.00
2018-12-20T04:11:08.806Z,189.50
2018-12-20T04:13:40.521Z,190.50
2018-12-20T04:16:12.810Z,200.25
2018-12-20T04:18:44.876Z,191.25
2018-12-20T04:21:17.143Z,202.75
2018-12-20T04:23:49.044Z,191.00
2018-12-20T04:26:20.546Z,201.00
2018-12-20T04:28:57.245Z,180.25
2018-12-20T04:31:29.469Z,178.50
2018-12-20T04:34:01.107Z,187.50
2018-12-20T04:36:32.895Z,184.50
2018-12-20T04:39:05.494Z,174.25
2018-12-20T04:41:37.489Z,211.75
2018-12-20T04:44:11.852Z,202.25
2018-12-20T04:46:43.933Z,196.25
2018-12-20T04:49:16.133Z,177.75
2018-12-20T04:51:47.845Z,177.00
2018-12-20T04:54:19.660Z,178.75
2018-12-20T04:56:51.206Z,160.75
2018-12-20T04:59:23.103Z,166.25
2018-12-20T05:01:54.869Z,187.25
2018-12-20T05:04:26.687Z,139.25
2018-12-20T05:06:58.553Z,147.50
2018-12-20T05:09:29.980Z,151.00
2018-12-20T05:12:01.580Z,134.00
2018-12-20T05:14:33.724Z,133.25
2018-12-20T05:17:05.995Z,139.50
2018-12-20T05:19:38.215Z,158.00
2018-12-20T05:22:10.320Z,159.00
2018-12-20T05:24:42.057Z,147.25
2018-12-20T05:27:13.604Z,143.00
2018-12-20T05:29:45.533Z,139.00
2018-12-20T05:32:17.294Z,118.75
2018-12-20T05:34:48.993Z,133.25
2018-12-20T05:37:21.104Z,97.50
2018-12-20T05:39:57.917Z,98.75
2018-12-20T05:42:29.866Z,89.60
2018-12-20T05:45:01.742Z,90.80
2018-12-20T05:47:33.845Z,99.40
2018-12-20T05:50:06.246Z,99.00
2018-12-20T05:52:37.750Z,104.50
2018-12-20T05:55:09.618Z,103.50
2018-12-20T05:57:41.912Z,110.00
2018-12-20T06:00:14.186Z,108.75
2018-12-20T06:02:46.498Z,105.50
2018-12-20T06:05:18.386Z,110.50
2018-12-20T06:07:50.592Z,112.25
2018-12-20T06:10:22.200Z,107.25
2018-12-20T06:12:54.113Z,96.50
2018-12-20T06:15:26.129Z,87.00
2018-12-20T06:17:57.683Z,96.20
2018-12-20T06:20:29.987Z,79.60
2018-12-20T06:23:02.224Z,88.60
2018-12-20T06:25:33.995Z,92.60
2018-12-20T06:28:06.270Z,90.40
2018-12-20T06:30:37.923Z,73.60
2018-12-20T06:33:10.179Z,84.20
2018-12-20T06:35:42.270Z,90.40
2018-12-20T06:38:13.849Z,81.80
2018-12-20T06:40:45.659Z,78.60
2018-12-20T06:43:17.360Z,73.40
2018-12-20T06:45:48.973Z,86.00
2018-12-20T06:48:20.857Z,76.60
2018-12-20T06:50:53.571Z,78.80
2018-12-20T06:53:25.441Z,83.20
2018-12-20T06:55:57.275Z,81.60
2018-12-20T06:58:30.408Z,76.20
2018-12-20T07:01:03.660Z,79.00
2018-12-20T07:03:35.799Z,79.60
2018-12-20T07:06:08.753Z,85.00
2018-12-20T07:08:40.530Z,84.60
2018-12-20T07:11:12.887Z,79.40
2018-12-20T07:13:44.600Z,80.40
2018-12-20T07:16:16.312Z,84.40
2018-12-20T07:18:47.887Z,86.40
2018-12-20T07:21:20.418Z,94.00
2018-12-20T07:23:52.009Z,87.20
2018-12-20T07:26:24.135Z,91.80
2018-12-20T07:28:56.080Z,88.00
2018-12-20T07:31:29.049Z,88.40
2018-12-20T07:34:00.820Z,87.00
2018-12-20T07:36:32.278Z,86.60
2018-12-20T07:39:03.663Z,85.00
2018-12-20T07:41:35.194Z,81.60
2018-12-20T07:44:06.834Z,84.00
2018-12-20T07:46:38.492Z,86.60
2018-12-20T07:49:09.846Z,87.00
2018-12-20T07:51:42.315Z,92.60
2018-12-20T07:54:13.783Z,83.80
2018-12-20T07:56:45.808Z,84.20
2018-12-20T07:59:23.489Z,85.80
2018-12-20T08:01:50.962Z,74.20
2018-12-20T08:04:22.435Z,76.80
2018-12-20T08:06:54.265Z,76.20
2018-12-20T08:09:25.884Z,76.20
2018-12-20T08:11:57.792Z,84.80
2018-12-20T08:14:29.265Z,82.40
2018-12-20T08:17:00.910Z,81.20
2018-12-20T08:19:36.172Z,75.80
2018-12-20T08:22:09.853Z,81.00
2018-12-20T08:24:41.523Z,72.00
2018-12-20T08:27:13.876Z,77.40
2018-12-20T08:29:47.269Z,80.80
2018-12-20T08:32:19.051Z,80.20
2018-12-20T08:34:50.470Z,78.60
2018-12-20T08:37:21.935Z,71.60
2018-12-20T08:39:53.509Z,75.80
2018-12-20T08:42:25.286Z,73.00
2018-12-20T08:44:57.407Z,70.60
2018-12-20T08:47:29.228Z,60.60
2018-12-20T08:50:01.015Z,69.20
2018-12-20T08:52:34.010Z,117.50
2018-12-20T08:55:06.176Z,85.60
2018-12-20T08:57:37.896Z,61.40
2018-12-20T09:00:10.284Z,66.80
2018-12-20T09:02:42.040Z,51.60
2018-12-20T09:08:18.548Z,105.75
2018-12-20T09:10:50.723Z,46.40
2018-12-20T09:13:22.480Z,46.80
2018-12-20T09:15:54.141Z,40.00
2018-12-20T09:18:25.995Z,53.60
2018-12-20T09:21:01.078Z,50.20
2018-12-20T09:23:34.155Z,58.00
2018-12-20T09:26:05.665Z,62.80
2018-12-20T09:28:37.265Z,72.80
2018-12-20T09:31:09.377Z,58.20
2018-12-20T09:33:41.543Z,65.60
2018-12-20T09:36:13.214Z,64.40
2018-12-20T09:38:45.075Z,65.00
2018-12-20T09:41:17.225Z,65.20
2018-12-20T09:43:48.775Z,67.60
2018-12-20T09:46:20.309Z,65.40
2018-12-20T09:48:51.937Z,70.00
2018-12-20T09:51:23.411Z,67.20
2018-12-20T09:53:55.903Z,64.00
2018-12-20T09:56:27.286Z,73.80
2018-12-20T09:58:59.110Z,72.20
2018-12-20T10:01:30.975Z,66.80
2018-12-20T10:04:03.393Z,55.40
2018-12-20T10:06:35.038Z,69.20
2018-12-20T10:09:09.078Z,57.40
2018-12-20T10:11:40.684Z,67.20
2018-12-20T10:14:12.538Z,60.80
2018-12-20T10:16:44.173Z,67.20
2018-12-20T10:19:26.682Z,67.00
2018-12-20T10:21:59.083Z,61.60
2018-12-20T10:24:31.108Z,58.40
2018-12-20T10:27:03.286Z,59.80
2018-12-20T10:29:35.660Z,57.80
2018-12-20T10:32:07.302Z,62.40
2018-12-20T10:34:39.250Z,63.80
2018-12-20T10:37:11.543Z,70.80
2018-12-20T10:39:43.714Z,67.40
2018-12-20T10:42:15.239Z,70.20
2018-12-20T10:44:46.821Z,67.60
2018-12-20T10:47:29.227Z,67.80
2018-12-20T10:49:59.823Z,65.00
2018-12-20T10:52:31.016Z,67.40
2018-12-20T10:55:03.602Z,68.60
2018-12-20T10:57:35.362Z,68.20
2018-12-20T11:00:07.714Z,73.00
2018-12-20T11:02:44.061Z,74.00
2018-12-20T11:05:21.144Z,71.60
2018-12-20T11:07:57.516Z,82.80
2018-12-20T11:10:29.896Z,65.40
2018-12-20T11:13:05.834Z,69.60
2018-12-20T11:15:37.476Z,73.40
2018-12-20T11:18:14.594Z,72.60
2018-12-20T11:20:46.842Z,75.00
2018-12-20T11:23:19.003Z,74.40
2018-12-20T11:25:51.051Z,76.20
2018-12-20T11:28:22.425Z,71.20
2018-12-20T11:30:53.880Z,73.00
2018-12-20T11:33:25.424Z,74.60
2018-12-20T11:35:57.382Z,73.40
2018-12-20T11:38:29.014Z,67.20
2018-12-20T11:41:00.532Z,68.60
2018-12-20T11:43:32.274Z,73.40
2018-12-20T11:46:03.994Z,69.40
2018-12-20T11:48:36.077Z,65.00
2018-12-20T11:51:07.923Z,69.80
2018-12-20T11:53:39.357Z,70.80
2018-12-20T11:56:13.830Z,68.80
2018-12-20T11:58:45.361Z,75.00
2018-12-20T12:01:17.222Z,69.20
2018-12-20T12:03:57.196Z,71.00
2018-12-20T12:06:22.895Z,69.60
2018-12-20T12:08:54.545Z,69.80
2018-12-20T12:11:26.286Z,70.40
2018-12-20T12:13:58.447Z,65.20
2018-12-20T12:16:30.274Z,78.00
2018-12-20T12:19:02.015Z,78.80
2018-12-20T12:21:33.929Z,70.80
2018-12-20T12:24:05.611Z,83.20
2018-12-20T12:26:38.369Z,86.60
2018-12-20T12:29:11.371Z,85.20
2018-12-20T12:31:44.458Z,82.00
2018-12-20T12:34:16.025Z,92.60
2018-12-20T12:36:48.172Z,108.00
2018-12-20T12:39:19.849Z,103.25
2018-12-20T12:41:51.682Z,108.00
2018-12-20T12:44:23.473Z,105.25
2018-12-20T12:46:55.456Z,112.50
2018-12-20T12:49:26.927Z,120.50
2018-12-20T12:51:58.656Z,134.25
2018-12-20T12:54:30.170Z,132.25
2018-12-20T12:57:02.722Z,133.50
2018-12-20T12:59:34.463Z,134.75
2018-12-20T13:02:06.545Z,138.75
2018-12-20T13:04:38.611Z,141.00
2018-12-20T13:07:10.980Z,140.50
2018-12-20T13:09:42.447Z,145.25
2018-12-20T13:12:14.050Z,142.50
2018-12-20T13:14:47.252Z,138.75
2018-12-20T13:17:19.327Z,141.75
2018-12-20T13:19:51.198Z,170.50
2018-12-20T13:22:23.380Z,173.75
2018-12-20T13:24:56.207Z,171.75
2018-12-20T13:27:28.867Z,155.00
2018-12-20T13:30:00.405Z,179.25
2018-12-20T13:32:32.081Z,176.50
2018-12-20T13:35:03.681Z,182.50
2018-12-20T13:37:35.367Z,190.75
2018-12-20T13:40:07.703Z,195.00
2018-12-20T13:42:39.165Z,194.00
2018-12-20T13:45:10.731Z,222.60
2018-12-20T13:47:43.122Z,222.50
2018-12-20T13:50:14.895Z,219.40
2018-12-20T13:52:46.567Z,219.00
2018-12-20T13:55:18.366Z,221.20
2018-12-20T13:57:51.156Z,210.60
2018-12-20T14:00:22.779Z,215.40
2018-12-20T14:02:54.556Z,207.80
2018-12-20T14:05:26.821Z,204.80
2018-12-20T14:07:58.997Z,217.40
2018-12-20T14:10:30.677Z,225.80
2018-12-20T14:13:02.360Z,229.60
2018-12-20T14:15:33.712Z,224.50
2018-12-20T14:18:05.201Z,227.50
2018-12-20T14:20:37.178Z,234.50
2018-12-20T14:23:09.013Z,245.20
2018-12-20T14:25:40.671Z,236.80
2018-12-20T14:28:12.968Z,236.20
2018-12-20T14:30:45.027Z,251.40
2018-12-20T14:33:16.760Z,249.00
2018-12-20T14:35:48.721Z,231.00
2018-12-20T14:38:20.515Z,250.60
2018-12-20T14:40:52.644Z,240.20
2018-12-20T14:43:24.695Z,242.80
2018-12-20T14:45:56.172Z,229.60
2018-12-20T14:48:38.995Z,258.20
2018-12-20T14:51:06.336Z,270.17
2018-12-20T14:53:38.268Z,252.80
2018-12-20T14:56:09.670Z,270.80
2018-12-20T14:58:42.170Z,288.40
2018-12-20T15:01:13.821Z,274.40
2018-12-20T15:03:46.044Z,282.20
2018-12-20T15:06:17.857Z,267.20
2018-12-20T15:08:49.748Z,266.20
2018-12-20T15:11:21.274Z,279.60
2018-12-20T15:13:52.716Z,272.80
2018-12-20T15:16:24.070Z,283.60
2018-12-20T15:18:56.269Z,289.80
2018-12-20T15:21:28.641Z,281.00
2018-12-20T15:24:00.425Z,265.80
2018-12-20T15:26:32.567Z,278.60
2018-12-20T15:29:04.615Z,281.40
2018-12-20T15:31:36.735Z,288.20
2018-12-20T15:34:08.672Z,298.00
2018-12-20T15:36:40.925Z,273.80
2018-12-20T15:39:12.991Z,269.20
2018-12-20T15:41:44.948Z,281.20
2018-12-20T15:44:16.819Z,272.80
2018-12-20T15:46:48.355Z,277.00
2018-12-20T15:49:20.205Z,279.20
2018-12-20T15:51:51.935Z,264.40
2018-12-20T15:54:24.311Z,283.80
2018-12-20T15:56:55.885Z,271.40
2018-12-20T15:59:28.230Z,290.80
2018-12-20T16:01:59.664Z,284.60
2018-12-20T16:04:31.787Z,280.60
2018-12-20T16:07:03.855Z,281.20
2018-12-20T16:09:36.120Z,284.40
2018-12-20T16:12:07.811Z,280.20
2018-12-20T16:14:40.107Z,284.20
2018-12-20T16:17:11.758Z,280.80
2018-12-20T16:19:44.180Z,262.20
2018-12-20T16:22:15.929Z,275.20
2018-12-20T16:24:47.708Z,279.40
2018-12-20T16:27:19.379Z,274.60
2018-12-20T16:29:51.455Z,275.20
2018-12-20T16:32:22.997Z,282.40
2018-12-20T16:34:54.966Z,290.83
2018-12-20T16:37:26.777Z,297.50
2018-12-20T16:39:59.017Z,308.20
2018-12-20T16:42:30.909Z,301.17
2018-12-20T16:45:02.936Z,297.33
2018-12-20T16:47:35.582Z,278.40
2018-12-20T16:50:08.980Z,280.20
2018-12-20T16:52:41.231Z,277.40
2018-12-20T16:55:13.292Z,271.80
2018-12-20T16:57:45.218Z,274.40
2018-12-20T17:00:17.274Z,292.20
2018-12-20T17:02:48.799Z,279.40
2018-12-20T17:05:20.729Z,263.20
2018-12-20T17:07:52.543Z,280.60
2018-12-20T17:10:24.287Z,274.00
2018-12-20T17:12:56.013Z,279.60
2018-12-20T17:15:27.957Z,289.40
2018-12-20T17:17:59.410Z,272.20
2018-12-20T17:20:31.544Z,266.80
2018-12-20T17:23:03.171Z,286.00
2018-12-20T17:25:35.020Z,281.60
2018-12-20T17:28:07.134Z,276.20
2018-12-20T17:30:39.131Z,268.60
2018-12-20T17:33:10.366Z,268.80
2018-12-20T17:35:42.818Z,278.40
2018-12-20T17:38:14.249Z,274.60
2018-12-20T17:40:46.037Z,285.80
2018-12-20T17:43:17.924Z,281.20
2018-12-20T17:45:49.489Z,274.00
2018-12-20T17:48:28.984Z,282.40
2018-12-20T17:50:54.929Z,270.60
2018-12-20T17:53:27.085Z,274.20
2018-12-20T17:55:58.657Z,273.20
2018-12-20T17:58:30.219Z,273.60
2018-12-20T18:01:02.225Z,270.80
2018-12-20T18:03:34.798Z,254.40
2018-12-20T18:06:06.775Z,263.80
2018-12-20T18:08:38.613Z,258.80
2018-12-20T18:11:10.340Z,259.20
2018-12-20T18:13:42.161Z,250.20
2018-12-20T18:16:14.117Z,250.20
2018-12-20T18:18:45.925Z,248.00
2018-12-20T18:21:17.903Z,259.00
2018-12-20T18:23:49.579Z,244.20
2018-12-20T18:26:21.450Z,243.80
2018-12-20T18:28:53.055Z,230.60
2018-12-20T18:31:25.536Z,245.00
2018-12-20T18:33:58.323Z,262.60
2018-12-20T18:36:30.620Z,241.20
2018-12-20T18:39:03.047Z,231.25
2018-12-20T18:41:35.577Z,240.00
2018-12-20T18:44:08.661Z,228.40
2018-12-20T18:46:40.416Z,240.75
2018-12-20T18:49:12.786Z,234.40
2018-12-20T18:51:45.981Z,240.80
2018-12-20T18:54:17.622Z,230.00
2018-12-20T18:56:50.096Z,232.40
2018-12-20T18:59:22.316Z,218.00
2018-12-20T19:01:54.386Z,214.25
2018-12-20T19:04:26.120Z,217.40
2018-12-20T19:06:57.811Z,223.25
2018-12-20T19:09:29.781Z,215.60
2018-12-20T19:12:02.426Z,218.50
2018-12-20T19:14:34.491Z,209.00
2018-12-20T19:17:06.505Z,210.00
2018-12-20T19:19:38.890Z,206.75
2018-12-20T19:22:10.951Z,215.25
2018-12-20T19:24:42.777Z,192.50
2018-12-20T19:27:14.163Z,196.25
2018-12-20T19:29:45.869Z,174.75
2018-12-20T19:32:17.673Z,170.25
2018-12-20T19:34:49.326Z,172.75
2018-12-20T19:37:20.929Z,172.75
2018-12-20T19:39:58.770Z,183.00
2018-12-20T19:42:30.429Z,173.00
2018-12-20T19:45:01.940Z,166.00
2018-12-20T19:47:34.042Z,165.50
2018-12-20T19:50:06.009Z,158.00
2018-12-20T19:52:38.016Z,158.00
2018-12-20T19:55:09.995Z,147.75
2018-12-20T19:57:42.006Z,160.50
2018-12-20T20:00:16.355Z,147.75
2018-12-20T20:02:48.630Z,159.00
2018-12-20T20:05:20.760Z,155.25
2018-12-20T20:07:52.461Z,159.75
2018-12-20T20:10:24.607Z,149.75
2018-12-20T20:12:56.772Z,153.50
2018-12-20T20:15:28.801Z,148.00
2018-12-20T20:18:00.716Z,139.25
2018-12-20T20:20:32.634Z,153.25
2018-12-20T20:23:04.319Z,138.50
2018-12-20T20:25:36.474Z,147.50
2018-12-20T20:28:08.240Z,144.75
2018-12-20T20:30:40.076Z,146.00
2018-12-20T20:33:12.157Z,144.75
2018-12-20T20:35:44.437Z,145.50
2018-12-20T20:38:15.913Z,132.50
2018-12-20T20:40:47.975Z,141.00
2018-12-20T20:43:19.712Z,138.50
2018-12-20T20:45:51.822Z,142.75
2018-12-20T20:48:23.907Z,145.00
2018-12-20T20:50:56.297Z,141.75
2018-12-20T20:53:27.982Z,136.25
2018-12-20T20:55:59.962Z,139.00
2018-12-20T20:58:32.596Z,143.25
2018-12-20T21:01:04.537Z,138.25
2018-12-20T21:03:36.858Z,129.00
2018-12-20T21:06:08.618Z,129.75
2018-12-20T21:08:40.470Z,123.25
2018-12-20T21:11:12.264Z,136.25
2018-12-20T21:13:44.214Z,126.00
2018-12-20T21:16:16.071Z,134.50
2018-12-20T21:18:47.765Z,133.75
2018-12-20T21:21:19.815Z,127.00
2018-12-20T21:23:51.841Z,125.25
2018-12-20T21:26:23.892Z,130.75
2018-12-20T21:28:55.660Z,120.50
2018-12-20T21:31:27.344Z,122.50
2018-12-20T21:33:59.496Z,121.25
2018-12-20T21:36:31.616Z,127.75
2018-12-20T21:39:04.817Z,128.75
2018-12-20T21:41:36.961Z,126.75
2018-12-20T21:44:08.582Z,121.50
2018-12-20T21:46:40.744Z,124.50
2018-12-20T21:49:13.043Z,111.75
2018-12-20T21:51:44.748Z,114.75
2018-12-20T21:54:16.304Z,114.50
2018-12-20T21:56:48.283Z,120.75
2018-12-20T21:59:21.110Z,114.75
2018-12-20T22:01:53.217Z,115.25
2018-12-20T22:04:25.766Z,115.25
2018-12-20T22:06:57.298Z,117.50
2018-12-20T22:09:28.913Z,121.00
2018-12-20T22:12:00.916Z,118.75
2018-12-20T22:14:32.426Z,118.75
2018-12-20T22:17:04.370Z,123.50
2018-12-20T22:19:36.115Z,130.50
2018-12-20T22:22:07.778Z,123.00
2018-12-20T22:24:39.316Z,128.00
2018-12-20T22:27:11.349Z,134.50
2018-12-20T22:29:43.766Z,123.25
2018-12-20T22:32:15.435Z,127.50
2018-12-20T22:34:47.533Z,119.50
2018-12-20T22:37:19.454Z,127.50
2018-12-20T22:39:51.077Z,135.75
2018-12-20T22:42:22.937Z,134.00
2018-12-20T22:44:54.833Z,130.75
2018-12-20T22:47:26.546Z,125.00
2018-12-20T22:49:58.113Z,138.00
2018-12-20T22:52:29.759Z,142.25
2018-12-20T22:55:01.567Z,142.75
2018-12-20T22:57:33.474Z,150.00
2018-12-20T23:00:06.455Z,145.25
2018-12-20T23:02:38.703Z,153.00
2018-12-20T23:05:10.886Z,160.50
2018-12-20T23:07:42.991Z,147.75
2018-12-20T23:10:16.008Z,154.00
2018-12-20T23:12:47.999Z,164.75
2018-12-20T23:15:19.522Z,156.75
2018-12-20T23:17:51.245Z,150.75
2018-12-20T23:20:22.835Z,154.25
2018-12-20T23:22:54.591Z,156.00
2018-12-20T23:25:26.431Z,160.00
2018-12-20T23:27:59.167Z,161.75
2018-12-20T23:30:30.895Z,165.00
2018-12-20T23:33:02.640Z,151.75
2018-12-20T23:35:34.822Z,153.50
2018-12-20T23:38:06.661Z,149.75
2018-12-20T23:40:38.212Z,143.75
2018-12-20T23:43:10.063Z,145.00
2018-12-20T23:45:41.966Z,150.50
2018-12-20T23:48:13.692Z,140.75
2018-12-20T23:50:45.501Z,141.25
2018-12-20T23:53:17.218Z,131.00
2018-12-20T23:55:48.683Z,143.50
2018-12-20T23:58:20.758Z,142.25
